USCGC Healy — NEPP — position and weather

sailwx.info

Track history (hours):
 
Tides and Currents Weather Stations Pressure Air Temp Water Temp Dewpoint Dewpoint Depression Visibility Wind Speed Wind Dir Waves Ship Positions

Oceanographic research ship USCGC Healy (USA)

Detailed information on ship capabilities available from University of Delaware's Ocean Information Center and ARCUS's ALIAS (Arctic Logistics Information and Support) project.

Last reported at 2019-Aug-20 08:00 UTC. Time now 2019-Aug-20 09:31 UTC.
Position N 71°48' W 153°36'.

Type: Military. MMSI: 303902000.

AWS

Wind from 310 at 13 knots

Barometer 1019.9 mb
Air temperature 5.6 ° C
Dewpoint 5.6 ° C
Water temperature 8.4 ° C

Date/timePositionNaut miles runAvg speedWind from/ knotsBaromVisibWave heightAir tempDewpointWater temp
2019-Aug-20 08:00N 71°48' W 153°36'0 0.0 310 / 131019.9 5.6 5.6 8.4
2019-Aug-20 07:00N 71°48' W 153°36'6 6.3 330 / 111020.6 5.6 5.2 8.5
2019-Aug-20 06:00N 71°42' W 153°42'2 1.9 310 / 131020.6 6.1 4.6 8.7
2019-Aug-20 05:00N 71°42' W 153°48'6 6.3 320 / 111021.2 6.1 4.1 8.7
2019-Aug-20 04:00N 71°36' W 153°54'6 6.3 320 / 151021.4 6.3 5.3 8.5
2019-Aug-20 03:00N 71°30' W 154°00'8 8.3 320 / 111022.0 6.1 5.1 8.5
2019-Aug-20 02:00N 71°36' W 154°18'1514.5 330 / 151022.5 6.0 5.0 8.6
2019-Aug-20 01:00N 71°42' W 155°00'0 0.0 320 / 121022.7 5.4 4.7 9.0
2019-Aug-20 00:00N 71°42' W 155°00'2 1.9 320 / 111023.2 5.1 4.7 8.8
2019-Aug-19 23:00N 71°42' W 155°06'0 0.0 290 / 101023.6 4.7 4.7 7.0
2019-Aug-19 22:00N 71°42' W 155°06'0 0.0 340 / 131024.0 4.4 6.8
2019-Aug-19 21:00N 71°42' W 155°06'0 0.0 330 / 111023.9 4.4 6.9
2019-Aug-19 20:00N 71°42' W 155°06'2 1.9 330 / 151024.2 4.3 4.2 7.1
2019-Aug-19 19:00N 71°42' W 155°12'6 6.3 340 / 81024.7 4.6 4.0 6.6
2019-Aug-19 18:00N 71°48' W 155°18'0 0.0 310 / 111024.7 4.5 4.5 6.3
2019-Aug-19 17:00N 71°48' W 155°18'0 0.0 330 / 91024.8 4.3 3.7 6.0
2019-Aug-19 16:00N 71°48' W 155°18'6 6.3 310 / 101025.0 4.3 3.1 6.3
2019-Aug-19 15:00N 71°54' W 155°24'1818.1 310 / 131025.2 4.0 3.4 6.3
2019-Aug-19 14:00N 72°12' W 155°30'6 6.3 320 / 131025.3 3.4 6.0
2019-Aug-19 13:00N 72°18' W 155°36'2 1.8 310 / 101025.8 3.1 6.7
2019-Aug-19 12:00N 72°18' W 155°42'6 6.3 330 / 141026.0 3.5 6.3
2019-Aug-19 11:00N 72°12' W 155°48'2 1.8 320 / 121026.5 3.8 3.5 6.2
2019-Aug-19 10:00N 72°12' W 155°54'0 0.0 320 / 91027.1 4.2 3.8 5.8
2019-Aug-19 09:00N 72°12' W 155°54'6 6.0 330 / 131027.2 4.2 3.7 6.3
2019-Aug-19 08:00N 72°06' W 155°54'6 6.3 300 / 141027.7 4.2 3.7 6.1
2019-Aug-19 07:00N 72°00' W 156°00'0 0.0 300 / 141028.1 4.4 6.2
2019-Aug-19 06:00N 72°00' W 156°00'2 1.9 310 / 101028.7 4.3 4.3 5.5
2019-Aug-19 05:00N 72°00' W 156°06'6 6.3 290 / 131029.0 4.3 4.2 6.4
2019-Aug-19 04:00N 71°54' W 156°12'6 6.0 300 / 111029.8 4.2 3.8 5.8
2019-Aug-19 03:00N 71°48' W 156°12'1111.2 320 / 121029.8 4.1 4.1 6.1
2019-Aug-19 02:00N 71°48' W 155°36'10 9.6 330 / 141030.2 4.7 4.1 6.3
2019-Aug-19 01:00N 71°42' W 155°12'8 8.3 310 / 91031.0 4.8 3.2 6.9
2019-Aug-19 00:00N 71°36' W 154°54'6 6.0 280 / 111031.4 5.6 3.6 9.0
2019-Aug-18 23:00N 71°42' W 154°54'2 1.9 300 / 101032.1 5.3 3.9 8.1
2019-Aug-18 22:00N 71°42' W 155°00'4 3.8 300 / 101032.7 4.9 3.9 8.1
2019-Aug-18 21:00N 71°42' W 155°12'0 0.0 320 / 111033.4 4.5 3.7 6.9
2019-Aug-18 20:00N 71°42' W 155°12'0 0.0 320 / 101034.0 4.4 4.4 6.9
2019-Aug-18 19:00N 71°42' W 155°12'7 7.1 320 / 111034.4 4.1 4.1 7.1
2019-Aug-18 18:00N 71°48' W 155°24'0 0.0 340 / 121035.0 4.1 4.1 6.4
2019-Aug-18 17:00N 71°48' W 155°24'2 1.9 330 / 81035.0 3.9 3.8 6.4
2019-Aug-18 16:00N 71°48' W 155°18'0 0.0 330 / 111035.3 3.8 3.5 6.4
2019-Aug-18 15:00N 71°48' W 155°18'7 7.5 320 / 131035.2 4.3 4.3 6.6
2019-Aug-18 14:00N 71°48' W 154°54'7 7.5 340 / 151034.9 5.3 4.2 6.7
2019-Aug-18 13:00N 71°48' W 154°30'7 7.5 320 / 161034.3 6.3 4.1 7.2
2019-Aug-18 12:00N 71°48' W 154°06'8 8.2 310 / 201035.5 6.8 4.9 8.3
2019-Aug-18 11:00N 71°54' W 153°48'8 8.2 300 / 181035.5 6.8 4.4 6.8
2019-Aug-18 10:00N 72°00' W 153°30'6 6.0 290 / 181035.9 7.0 4.4 7.8
2019-Aug-18 09:00N 72°06' W 153°30'8 8.2 280 / 151036.6 6.8 4.4 6.9
2019-Aug-18 08:00N 72°12' W 153°48'7 7.0 280 / 161037.0 6.5 4.3 7.7
2019-Aug-18 07:00N 72°18' W 154°00'9 9.4 280 / 121037.4 5.4 4.7 4.5
2019-Aug-18 06:00N 72°24' W 154°24'9 9.1 290 / 111038.0 5.6 4.6 5.0
2019-Aug-18 05:00N 72°24' W 154°54'7 7.3 290 / 121038.5 5.6 4.0 4.5
2019-Aug-18 04:00N 72°24' W 155°18'5 5.4 290 / 121039.1 6.3 4.5 5.4
2019-Aug-18 03:00N 72°24' W 155°36'2 1.8 340 / 41039.7 6.6 4.9 5.6
2019-Aug-18 02:00N 72°24' W 155°30'6 6.3 300 / 111039.7 5.6 4.0 4.6
2019-Aug-18 01:00N 72°30' W 155°24'0 0.0 230 / 31039.9 6.0 2.6 4.5
2019-Aug-18 00:00N 72°30' W 155°24'0 0.0 300 / 111040.1 5.7 3.1 4.5
2019-Aug-17 23:00N 72°30' W 155°24'6 6.0 310 / 131040.3 5.3 2.7 4.5
2019-Aug-17 22:00N 72°36' W 155°24'6 6.0 300 / 151040.3 5.1 3.5 4.5
2019-Aug-17 21:00N 72°30' W 155°24'0 0.0 290 / 171040.5 5.2 3.3 4.6
2019-Aug-17 20:00N 72°30' W 155°24'0 0.0 300 / 161040.4 5.0 3.4 4.4
2019-Aug-17 19:00N 72°30' W 155°24'0 0.0 300 / 141040.3 4.9 3.0 4.4
2019-Aug-17 18:00N 72°30' W 155°24'0 0.0 300 / 161040.2 4.9 3.2 4.5
2019-Aug-17 17:00N 72°30' W 155°24'6 6.3 310 / 161040.2 4.9 3.4 4.6
2019-Aug-17 16:00N 72°24' W 155°30'1414.0 310 / 211039.7 5.0 3.4 5.0
2019-Aug-17 15:00N 72°12' W 155°54'1414.1 310 / 191040.1 5.9 2.9 6.3
2019-Aug-17 14:00N 72°00' W 156°18'1414.1 310 / 151040.4 6.6 3.8 6.0
2019-Aug-17 13:00N 71°48' W 156°42'1414.2 290 / 151040.6 6.4 5.1 6.2
2019-Aug-17 12:00N 71°36' W 157°06'1212.2 300 / 131040.7 6.3 4.8 6.5
2019-Aug-17 11:00N 71°24' W 157°12'6 6.0 340 / 51040.4 5.9 4.3 7.6
2019-Aug-17 10:00N 71°18' W 157°12'0 0.0 010 / 161040.3 5.2 4.4 9.2
2019-Aug-17 09:00N 71°18' W 157°12'2 1.9 010 / 121039.7 5.0 3.8 9.6
2019-Aug-17 08:00N 71°18' W 157°18'0 0.0 020 / 151038.9 4.8 3.5 8.8
2019-Aug-17 07:00N 71°18' W 157°18'6 6.3 360 / 181038.3 4.6 2.8 8.6
2019-Aug-17 06:00N 71°24' W 157°24'0 0.0 1037.5 4.5 3.2 6.7
2019-Aug-17 05:00N 71°24' W 157°24'2 1.9 350 / 161036.6 4.7 2.8 6.5
2019-Aug-17 04:00N 71°24' W 157°30'0 0.0 1035.8 4.6 2.5 6.8
2019-Aug-17 03:00N 71°24' W 157°30'6 6.3 360 / 161035.1 5.0 2.6 6.8
2019-Aug-17 02:00N 71°30' W 157°36'0 0.0 1034.1 4.6 2.7 6.6
2019-Aug-17 01:00N 71°30' W 157°36'0 0.0 020 / 161033.1 4.5 2.5 6.9
2019-Aug-17 00:00N 71°30' W 157°36'2 1.9 020 / 161032.2 4.5 2.5 4.0
2019-Aug-16 23:00N 71°30' W 157°42'0 0.0 010 / 211031.4 4.9 2.7 6.2
2019-Aug-16 22:00N 71°30' W 157°42'6 6.3 010 / 191029.9 5.0 2.4 5.9
2019-Aug-16 21:00N 71°36' W 157°48'0 0.0 020 / 181029.8 5.2 2.6 5.7
2019-Aug-16 20:00N 71°36' W 157°48'2 1.9 360 / 181028.7 5.2 3.2 5.0
2019-Aug-16 19:00N 71°36' W 157°54'0 0.0 1028.3 5.3 2.8 5.2
2019-Aug-16 18:00N 71°36' W 157°54'10 9.6 1027.4 5.3 3.0 3.0
2019-Aug-16 17:00N 71°42' W 158°18'9 9.4 1027.0 5.6 2.3 5.9
2019-Aug-16 16:00N 71°42' W 158°48'1312.8 010 / 231027.2 5.7 3.4 5.9
2019-Aug-16 15:00N 71°48' W 159°24'9 9.4 010 / 191027.0 5.9 4.0 5.5
2019-Aug-16 14:00N 71°48' W 159°54'1111.1 010 / 161027.4 5.6 3.7 5.8
2019-Aug-16 13:00N 71°54' W 160°24'1111.1 020 / 151027.4 5.8 3.6 6.1
2019-Aug-16 12:00N 72°00' W 160°54'9 9.3 030 / 131027.2 5.8 4.8 5.8
2019-Aug-16 11:00N 72°00' W 161°24'1616.3 040 / 171026.8 5.9 4.8 5.6
2019-Aug-16 10:00N 72°12' W 162°00'1312.5 040 / 201026.7 6.1 4.6 6.2
2019-Aug-16 09:00N 72°18' W 162°36'1616.2 040 / 241027.0 6.2 4.5 7.1
2019-Aug-16 08:00N 72°30' W 163°12'1212.4 040 / 211027.7 6.6 4.3 8.2
2019-Aug-16 07:00N 72°36' W 163°48'6210.3 050 / 191027.7 6.3 4.5 7.3
2019-Aug-16 01:00N 73°24' W 166°00'0 0.0 050 / 111029.8 5.1 5.1 4.6
2019-Aug-16 00:00N 73°24' W 166°00'6 6.0 050 / 81029.9 5.0 4.4 4.3
2019-Aug-15 23:00N 73°30' W 166°00'6 6.0 050 / 111029.8 4.9 4.6 4.8
2019-Aug-15 22:00N 73°36' W 166°00'0 0.0 060 / 111029.6 4.8 4.1 4.9
2019-Aug-15 21:00N 73°36' W 166°00'0 0.0 060 / 71029.6 4.3 4.0 5.0
2019-Aug-15 20:00N 73°36' W 166°00'6 6.0 060 / 151029.4 3.6 5.2
2019-Aug-15 19:00N 73°42' W 166°00'1212.0 030 / 101029.2 3.1 3.4
2019-Aug-15 18:00N 73°54' W 166°00'0 0.0 050 / 121029.2 3.2 4.3
2019-Aug-15 17:00N 73°54' W 166°00'0 0.0 060 / 71028.8 3.6 3.6 4.5
2019-Aug-15 16:00N 73°54' W 166°00'6 6.0 050 / 131028.4 4.1 3.7 4.9
2019-Aug-15 15:00N 74°00' W 166°00'6 6.0 060 / 121028.1 4.5 4.5 6.2
2019-Aug-15 14:00N 74°06' W 166°00'0 0.0 050 / 101028.1 4.6 4.6 5.7
2019-Aug-15 13:00N 74°06' W 166°00'5 4.9 060 / 81027.8 4.6 5.8
2019-Aug-15 12:00N 74°06' W 165°42'8 7.8 060 / 91027.5 4.4 4.4 4.6
2019-Aug-15 11:00N 74°12' W 165°24'8 7.7 060 / 81027.2 4.6 4.2 4.5
2019-Aug-15 10:00N 74°18' W 165°06'6 6.5 050 / 81026.7 4.5 3.8 4.6
2019-Aug-15 09:00N 74°18' W 164°42'7 6.8 050 / 91026.3 4.5 3.8 4.8
2019-Aug-15 08:00N 74°24' W 164°30'1414.2 060 / 101025.9 4.2 3.7 4.9
2019-Aug-15 07:00N 74°30' W 163°42'1414.1 050 / 111025.3 3.9 3.9 4.8
2019-Aug-15 06:00N 74°36' W 162°54'1111.3 060 / 91025.0 3.2 3.2 4.8
2019-Aug-15 05:00N 74°42' W 162°18'2 1.6 050 / 101024.5 2.9 2.9 3.7
2019-Aug-15 04:00N 74°42' W 162°12'2 1.6 030 / 101023.9 3.0 2.9 3.1
2019-Aug-15 03:00N 74°42' W 162°06'2 1.6 050 / 151023.4 3.0 3.0 3.4
2019-Aug-15 02:00N 74°42' W 162°00'2 1.6 050 / 131022.8 2.8 2.8 3.4
2019-Aug-15 01:00N 74°42' W 161°54'0 0.0 030 / 131022.3 2.4 3.8
2019-Aug-15 00:00N 74°42' W 161°54'2 1.6 030 / 121022.0 2.4 3.0
2019-Aug-14 23:00N 74°42' W 161°48'1312.6 030 / 131021.3 2.4 2.1 3.5
2019-Aug-14 22:00N 74°36' W 162°30'1414.1 020 / 131020.2 2.5 2.0 4.9
2019-Aug-14 21:00N 74°30' W 163°18'1414.2 040 / 131020.0 3.1 2.6 5.2
2019-Aug-14 20:00N 74°24' W 164°06'1414.3 030 / 141019.3 3.0 2.7 4.6
2019-Aug-14 19:00N 74°18' W 164°54'9 8.9 050 / 161018.4 2.6 1.6 4.8
2019-Aug-14 18:00N 74°12' W 165°18'0 0.0 040 / 181018.6 2.3 2.3 4.9
2019-Aug-14 17:00N 74°12' W 165°18'2 1.6 050 / 191017.8 2.4 2.3 4.8
2019-Aug-14 16:00N 74°12' W 165°24'8 7.7 060 / 161017.4 2.8 2.6 4.7
2019-Aug-14 15:00N 74°18' W 165°06'5 4.9 060 / 151017.3 3.2 2.2 4.7
2019-Aug-14 14:00N 74°18' W 164°48'6 6.2 060 / 161016.9 3.0 2.4 5.2
2019-Aug-14 13:00N 74°24' W 164°42'6 6.5 050 / 231016.2 2.9 2.2 5.3
2019-Aug-14 12:00N 74°24' W 164°18'8 7.7 050 / 171015.7 3.1 2.3 4.9
2019-Aug-14 11:00N 74°30' W 164°00'8 7.7 060 / 191015.5 2.6 1.8 4.9
2019-Aug-14 10:00N 74°36' W 163°42'6 6.4 060 / 201015.1 2.9 1.8 5.0
2019-Aug-14 09:00N 74°36' W 163°18'2 1.6 070 / 211014.2 2.8 1.8 4.6
2019-Aug-14 08:00N 74°36' W 163°12'8 7.7 060 / 161014.8 3.2 2.3 4.7
2019-Aug-14 07:00N 74°42' W 162°54'8 7.6 070 / 141014.7 3.0 2.1 4.3
2019-Aug-14 06:00N 74°48' W 162°36'8 7.6 060 / 231013.4 2.4 1.5 4.5
2019-Aug-14 05:00N 74°42' W 162°18'6 6.0 070 / 281012.5 2.4 1.7 4.1
2019-Aug-14 04:00N 74°36' W 162°18'5 4.8 070 / 271012.5 2.5 2.2 3.6
2019-Aug-14 03:00N 74°36' W 162°00'6 6.0 070 / 271011.8 2.9 2.5 3.1
2019-Aug-14 02:00N 74°30' W 162°00'5 4.8 080 / 231010.7 3.0 2.5 3.1
2019-Aug-14 01:00N 74°30' W 161°42'7 6.8 070 / 231010.8 3.4 2.8 3.3
2019-Aug-14 00:00N 74°24' W 161°30'3 3.2 080 / 231010.2 3.6 3.4 3.3
2019-Aug-13 23:00N 74°24' W 161°18'6 6.2 090 / 281009.4 3.7 3.7 3.4
2019-Aug-13 22:00N 74°18' W 161°12'6 6.2 090 / 241009.2 4.0 3.9 3.4
2019-Aug-13 21:00N 74°24' W 161°18'1111.4 080 / 231007.2 4.4 3.3
2019-Aug-13 20:00N 74°30' W 161°54'9 8.8 080 / 181007.3 4.2 3.1
2019-Aug-13 19:00N 74°24' W 161°30'1111.4 090 / 191007.0 4.2 3.4
2019-Aug-13 18:00N 74°18' W 160°54'6 6.2 100 / 161006.4 4.4 4.0
2019-Aug-13 17:00N 74°12' W 160°48'3 3.3 090 / 121006.0 4.2 4.2
2019-Aug-13 16:00N 74°12' W 160°36'8 7.8 110 / 111005.7 4.2 4.2 3.4
2019-Aug-13 15:00N 74°06' W 160°18'7 6.8 100 / 71005.5 4.0 4.8
2019-Aug-13 14:00N 74°00' W 160°06'3 3.3 120 / 71005.4 3.7 3.7 4.2
2019-Aug-13 13:00N 74°00' W 159°54'6 6.2 150 / 41005.0 3.8 3.6
2019-Aug-13 12:00N 73°54' W 159°48'9 9.0 130 1005.1 3.8 3.2
2019-Aug-13 11:00N 73°48' W 159°24'2 1.7 240 / 41005.0 3.7 3.7 3.7
2019-Aug-13 10:00N 73°48' W 159°18'0 0.0 290 / 31005.4 3.8 4.4
2019-Aug-13 09:00N 73°48' W 159°18'0 0.0 290 / 31005.5 3.7 3.7 4.4
2019-Aug-13 08:00N 73°48' W 159°18'7 6.9 300 1005.9 3.7 4.2
2019-Aug-13 07:00N 73°42' W 159°30'6 6.2 360 / 51006.1 3.5 3.2
2019-Aug-13 06:00N 73°36' W 159°36'2 1.7 300 / 31006.3 4.0 3.8
2019-Aug-13 05:00N 73°36' W 159°42'6 6.2 270 / 41007.0 4.2 4.3
2019-Aug-13 04:00N 73°30' W 159°48'6 6.2 260 / 61007.3 3.5 4.3
2019-Aug-13 03:00N 73°24' W 159°54'1010.5 270 / 51008.1 3.4 3.8
2019-Aug-13 02:00N 73°18' W 160°24'7 6.9 270 / 81008.4 4.7 4.0
2019-Aug-13 01:00N 73°18' W 160°48'0 0.0 250 / 101008.7 5.2 5.0 6.4
2019-Aug-13 00:00N 73°18' W 160°48'0 0.0 250 / 111009.3 5.1 5.1 5.5
2019-Aug-12 23:00N 73°18' W 160°48'2 1.7 260 / 101009.7 5.2 4.5 5.0
2019-Aug-12 22:00N 73°18' W 160°42'1211.9 240 / 81009.6 5.0 4.4 4.6
2019-Aug-12 21:00N 73°24' W 160°06'0 0.0 300 / 31010.7 4.7 3.6
2019-Aug-12 20:00N 73°24' W 160°06'6 6.0 250 / 131011.0 4.5 4.3
2019-Aug-12 19:00N 73°18' W 160°06'5 5.2 240 / 131011.2 4.6 4.4 4.6
2019-Aug-12 18:00N 73°18' W 160°24'2 1.7 260 / 111011.4 4.6 4.6 4.6
2019-Aug-12 17:00N 73°18' W 160°18'6 6.0 240 / 71012.0 4.7 4.7
2019-Aug-12 16:00N 73°12' W 160°18'2 1.7 260 / 161012.4 4.5 4.5 4.7
2019-Aug-12 15:00N 73°12' W 160°24'6 6.2 270 / 191012.7 4.4 4.4 5.8
2019-Aug-12 14:00N 73°06' W 160°30'2 1.7 270 / 181013.2 4.5 4.5 6.0
2019-Aug-12 13:00N 73°06' W 160°24'2 1.7 260 / 141013.1 5.0 4.8 5.2
2019-Aug-12 12:00N 73°06' W 160°30'6 6.2 260 / 181013.6 5.2 5.2 5.7
2019-Aug-12 11:00N 73°00' W 160°36'0 0.0 250 / 191014.2 5.3 5.6
2019-Aug-12 10:00N 73°00' W 160°36'7 7.0 250 / 151014.3 5.3 4.2
2019-Aug-12 09:00N 72°54' W 160°48'0 0.0 260 / 191014.8 5.7 5.6
2019-Aug-12 08:00N 72°54' W 160°48'8 8.0 230 / 131014.9 5.2 5.2 2.3
2019-Aug-12 07:00N 72°48' W 161°06'1312.5 250 / 161015.8 5.4 5.2
2019-Aug-12 06:00N 72°36' W 161°18'1313.2 270 / 171016.4 5.9 6.4
2019-Aug-12 05:00N 72°24' W 161°36'8 8.1 260 / 151016.5 6.4 7.5
2019-Aug-12 04:00N 72°18' W 161°54'1212.1 270 / 161017.1 6.6 6.6 6.6
2019-Aug-12 03:00N 72°06' W 161°48'1212.1 250 / 81017.4 6.3 5.4
2019-Aug-12 02:00N 71°54' W 161°42'6 6.3 260 / 121017.8 6.5 6.2
2019-Aug-12 01:00N 71°48' W 161°48'6 6.3 280 / 141018.6 6.6 6.6 6.3
2019-Aug-12 00:00N 71°42' W 161°42'6 6.3 270 / 131018.4 6.7 4.5
2019-Aug-11 23:00N 71°36' W 161°36'0 0.0 290 / 141018.6 6.6 3.8
2019-Aug-11 22:00N 71°36' W 161°36'6 6.3 280 / 151018.4 6.5 6.5 6.6
2019-Aug-11 21:00N 71°30' W 161°30'0 0.0 300 / 181018.7 6.5 6.5 5.0
2019-Aug-11 20:00N 71°30' W 161°30'0 0.0 290 / 181018.4 6.6 6.0 6.3
2019-Aug-11 19:00N 71°30' W 161°30'2 1.9 300 / 191018.2 6.7 5.7 6.6
2019-Aug-11 18:00N 71°30' W 161°24'6 6.0 290 / 241018.0 6.9 5.9 6.0
2019-Aug-11 17:00N 71°24' W 161°24'6 6.0 280 / 201018.2 7.1 6.1 6.4
2019-Aug-11 16:00N 71°18' W 161°24'6 6.3 270 / 201018.7 7.0 6.3 7.0
2019-Aug-11 15:00N 71°12' W 161°18'0 0.0 290 / 191019.1 7.3 6.5 5.8
2019-Aug-11 14:00N 71°12' W 161°18'0 0.0 270 / 151019.8 6.7 6.6 5.9
2019-Aug-11 13:00N 71°12' W 161°18'6 6.3 260 / 161020.0 6.2 1.6
2019-Aug-11 12:00N 71°06' W 161°12'0 0.0 260 / 201020.6 6.0 6.7
2019-Aug-11 11:00N 71°06' W 161°12'8 8.4 260 / 131021.7 5.8 5.8
2019-Aug-11 10:00N 71°00' W 161°30'1515.0 280 / 101022.6 5.8 7.8
2019-Aug-11 09:00N 70°54' W 162°12'3014.9 290 / 91023.1 6.4 6.3 9.2
2019-Aug-11 07:00N 70°36' W 163°24'1515.2 340 / 71023.5 6.6 6.010.4
2019-Aug-11 06:00N 70°30' W 164°06'1717.0 340 / 91023.4 7.2 6.010.8
2019-Aug-11 05:00N 70°18' W 164°42'1313.5 020 / 81023.5 6.8 6.010.2
2019-Aug-11 04:00N 70°06' W 165°00'1514.5 030 / 81023.9 7.1 6.310.6
2019-Aug-11 03:00N 69°54' W 165°24'1413.5 040 / 101023.5 7.7 6.510.5
2019-Aug-11 02:00N 69°42' W 165°42'1514.6 050 / 131023.2 8.5 6.811.0
2019-Aug-11 01:00N 69°30' W 166°06'1413.6 060 / 141023.3 8.9 6.611.9
2019-Aug-11 00:00N 69°18' W 166°24'1919.1 070 / 151023.0 9.4 6.811.6
2019-Aug-10 23:00N 69°00' W 166°42'1312.8 070 / 181022.6 9.1 7.112.3
2019-Aug-10 22:00N 68°48' W 166°54'1312.8 060 / 181022.2 9.1 8.012.0
2019-Aug-10 21:00N 68°36' W 167°06'1212.2 040 / 141022.1 10.1 8.212.5
2019-Aug-10 20:00N 68°24' W 167°12'9 8.9 050 / 121022.6 11.1 8.611.8
2019-Aug-10 19:00N 68°18' W 166°54'4 4.4 050 / 101022.5 11.3 8.612.5
2019-Aug-10 18:00N 68°18' W 167°06'6 6.0 060 / 101022.4 10.6 8.310.2
2019-Aug-10 17:00N 68°12' W 167°06'4 4.5 050 / 61022.6 11.0 8.410.2
2019-Aug-10 16:00N 68°12' W 167°18'7 7.5 020 / 61022.4 10.6 8.9 8.6
2019-Aug-10 15:00N 68°06' W 167°30'0 0.0 010 / 91022.7 9.9 8.6 7.6
2019-Aug-10 14:00N 68°06' W 167°30'1110.8 010 / 71022.5 10.0 9.0 8.0
2019-Aug-10 13:00N 68°00' W 167°54'0 0.0 010 / 91023.0 9.5 8.8 7.6
2019-Aug-10 12:00N 68°00' W 167°54'1110.8 040 / 101022.9 9.5 8.6 7.8
2019-Aug-10 11:00N 67°54' W 168°18'2 2.3 310 / 81023.3 8.7 8.6 7.4
2019-Aug-10 10:00N 67°54' W 168°12'0 0.0 270 / 101023.3 7.6 7.6 7.0
2019-Aug-10 09:00N 67°54' W 168°12'2 2.3 280 / 71023.3 7.8 7.7 6.8
2019-Aug-10 08:00N 67°54' W 168°18'   260 / 91023.2 7.9 7.5 7.1
Track history (hours):
 
Tides and Currents Weather Stations Pressure Air Temp Water Temp Dewpoint Dewpoint Depression Visibility Wind Speed Wind Dir Waves Ship Positions

Oceanographic research ship USCGC Healy (USA)

Detailed information on ship capabilities available from University of Delaware's Ocean Information Center and ARCUS's ALIAS (Arctic Logistics Information and Support) project.

Last reported at 2019-Aug-20 08:00 UTC. Time now 2019-Aug-20 09:31 UTC.
Position N 71°48' W 153°36'.

Type: Military. MMSI: 303902000.

AWS

Wind from 310 at 13 knots

Barometer 1019.9 mb
Air temperature 5.6 ° C
Dewpoint 5.6 ° C
Water temperature 8.4 ° C

Date/timePositionNaut miles runAvg speedWind from/ knotsBaromVisibWave heightAir tempDewpointWater temp
2019-Aug-20 08:00N 71°48' W 153°36'0 0.0 310 / 131019.9 5.6 5.6 8.4
2019-Aug-20 07:00N 71°48' W 153°36'6 6.3 330 / 111020.6 5.6 5.2 8.5
2019-Aug-20 06:00N 71°42' W 153°42'2 1.9 310 / 131020.6 6.1 4.6 8.7
2019-Aug-20 05:00N 71°42' W 153°48'6 6.3 320 / 111021.2 6.1 4.1 8.7
2019-Aug-20 04:00N 71°36' W 153°54'6 6.3 320 / 151021.4 6.3 5.3 8.5
2019-Aug-20 03:00N 71°30' W 154°00'8 8.3 320 / 111022.0 6.1 5.1 8.5
2019-Aug-20 02:00N 71°36' W 154°18'1514.5 330 / 151022.5 6.0 5.0 8.6
2019-Aug-20 01:00N 71°42' W 155°00'0 0.0 320 / 121022.7 5.4 4.7 9.0
2019-Aug-20 00:00N 71°42' W 155°00'2 1.9 320 / 111023.2 5.1 4.7 8.8
2019-Aug-19 23:00N 71°42' W 155°06'0 0.0 290 / 101023.6 4.7 4.7 7.0
2019-Aug-19 22:00N 71°42' W 155°06'0 0.0 340 / 131024.0 4.4 6.8
2019-Aug-19 21:00N 71°42' W 155°06'0 0.0 330 / 111023.9 4.4 6.9
2019-Aug-19 20:00N 71°42' W 155°06'2 1.9 330 / 151024.2 4.3 4.2 7.1
2019-Aug-19 19:00N 71°42' W 155°12'6 6.3 340 / 81024.7 4.6 4.0 6.6
2019-Aug-19 18:00N 71°48' W 155°18'0 0.0 310 / 111024.7 4.5 4.5 6.3
2019-Aug-19 17:00N 71°48' W 155°18'0 0.0 330 / 91024.8 4.3 3.7 6.0
2019-Aug-19 16:00N 71°48' W 155°18'6 6.3 310 / 101025.0 4.3 3.1 6.3
2019-Aug-19 15:00N 71°54' W 155°24'1818.1 310 / 131025.2 4.0 3.4 6.3
2019-Aug-19 14:00N 72°12' W 155°30'6 6.3 320 / 131025.3 3.4 6.0
2019-Aug-19 13:00N 72°18' W 155°36'2 1.8 310 / 101025.8 3.1 6.7
2019-Aug-19 12:00N 72°18' W 155°42'6 6.3 330 / 141026.0 3.5 6.3
2019-Aug-19 11:00N 72°12' W 155°48'2 1.8 320 / 121026.5 3.8 3.5 6.2
2019-Aug-19 10:00N 72°12' W 155°54'0 0.0 320 / 91027.1 4.2 3.8 5.8
2019-Aug-19 09:00N 72°12' W 155°54'6 6.0 330 / 131027.2 4.2 3.7 6.3
2019-Aug-19 08:00N 72°06' W 155°54'6 6.3 300 / 141027.7 4.2 3.7 6.1
2019-Aug-19 07:00N 72°00' W 156°00'0 0.0 300 / 141028.1 4.4 6.2
2019-Aug-19 06:00N 72°00' W 156°00'2 1.9 310 / 101028.7 4.3 4.3 5.5
2019-Aug-19 05:00N 72°00' W 156°06'6 6.3 290 / 131029.0 4.3 4.2 6.4
2019-Aug-19 04:00N 71°54' W 156°12'6 6.0 300 / 111029.8 4.2 3.8 5.8
2019-Aug-19 03:00N 71°48' W 156°12'1111.2 320 / 121029.8 4.1 4.1 6.1
2019-Aug-19 02:00N 71°48' W 155°36'10 9.6 330 / 141030.2 4.7 4.1 6.3
2019-Aug-19 01:00N 71°42' W 155°12'8 8.3 310 / 91031.0 4.8 3.2 6.9
2019-Aug-19 00:00N 71°36' W 154°54'6 6.0 280 / 111031.4 5.6 3.6 9.0
2019-Aug-18 23:00N 71°42' W 154°54'2 1.9 300 / 101032.1 5.3 3.9 8.1
2019-Aug-18 22:00N 71°42' W 155°00'4 3.8 300 / 101032.7 4.9 3.9 8.1
2019-Aug-18 21:00N 71°42' W 155°12'0 0.0 320 / 111033.4 4.5 3.7 6.9
2019-Aug-18 20:00N 71°42' W 155°12'0 0.0 320 / 101034.0 4.4 4.4 6.9
2019-Aug-18 19:00N 71°42' W 155°12'7 7.1 320 / 111034.4 4.1 4.1 7.1
2019-Aug-18 18:00N 71°48' W 155°24'0 0.0 340 / 121035.0 4.1 4.1 6.4
2019-Aug-18 17:00N 71°48' W 155°24'2 1.9 330 / 81035.0 3.9 3.8 6.4
2019-Aug-18 16:00N 71°48' W 155°18'0 0.0 330 / 111035.3 3.8 3.5 6.4
2019-Aug-18 15:00N 71°48' W 155°18'7 7.5 320 / 131035.2 4.3 4.3 6.6
2019-Aug-18 14:00N 71°48' W 154°54'7 7.5 340 / 151034.9 5.3 4.2 6.7
2019-Aug-18 13:00N 71°48' W 154°30'7 7.5 320 / 161034.3 6.3 4.1 7.2
2019-Aug-18 12:00N 71°48' W 154°06'8 8.2 310 / 201035.5 6.8 4.9 8.3
2019-Aug-18 11:00N 71°54' W 153°48'8 8.2 300 / 181035.5 6.8 4.4 6.8
2019-Aug-18 10:00N 72°00' W 153°30'6 6.0 290 / 181035.9 7.0 4.4 7.8
2019-Aug-18 09:00N 72°06' W 153°30'8 8.2 280 / 151036.6 6.8 4.4 6.9
2019-Aug-18 08:00N 72°12' W 153°48'7 7.0 280 / 161037.0 6.5 4.3 7.7
2019-Aug-18 07:00N 72°18' W 154°00'9 9.4 280 / 121037.4 5.4 4.7 4.5
2019-Aug-18 06:00N 72°24' W 154°24'9 9.1 290 / 111038.0 5.6 4.6 5.0
2019-Aug-18 05:00N 72°24' W 154°54'7 7.3 290 / 121038.5 5.6 4.0 4.5
2019-Aug-18 04:00N 72°24' W 155°18'5 5.4 290 / 121039.1 6.3 4.5 5.4
2019-Aug-18 03:00N 72°24' W 155°36'2 1.8 340 / 41039.7 6.6 4.9 5.6
2019-Aug-18 02:00N 72°24' W 155°30'6 6.3 300 / 111039.7 5.6 4.0 4.6
2019-Aug-18 01:00N 72°30' W 155°24'0 0.0 230 / 31039.9 6.0 2.6 4.5
2019-Aug-18 00:00N 72°30' W 155°24'0 0.0 300 / 111040.1 5.7 3.1 4.5
2019-Aug-17 23:00N 72°30' W 155°24'6 6.0 310 / 131040.3 5.3 2.7 4.5
2019-Aug-17 22:00N 72°36' W 155°24'6 6.0 300 / 151040.3 5.1 3.5 4.5
2019-Aug-17 21:00N 72°30' W 155°24'0 0.0 290 / 171040.5 5.2 3.3 4.6
2019-Aug-17 20:00N 72°30' W 155°24'0 0.0 300 / 161040.4 5.0 3.4 4.4
2019-Aug-17 19:00N 72°30' W 155°24'0 0.0 300 / 141040.3 4.9 3.0 4.4
2019-Aug-17 18:00N 72°30' W 155°24'0 0.0 300 / 161040.2 4.9 3.2 4.5
2019-Aug-17 17:00N 72°30' W 155°24'6 6.3 310 / 161040.2 4.9 3.4 4.6
2019-Aug-17 16:00N 72°24' W 155°30'1414.0 310 / 211039.7 5.0 3.4 5.0
2019-Aug-17 15:00N 72°12' W 155°54'1414.1 310 / 191040.1 5.9 2.9 6.3
2019-Aug-17 14:00N 72°00' W 156°18'1414.1 310 / 151040.4 6.6 3.8 6.0
2019-Aug-17 13:00N 71°48' W 156°42'1414.2 290 / 151040.6 6.4 5.1 6.2
2019-Aug-17 12:00N 71°36' W 157°06'1212.2 300 / 131040.7 6.3 4.8 6.5
2019-Aug-17 11:00N 71°24' W 157°12'6 6.0 340 / 51040.4 5.9 4.3 7.6
2019-Aug-17 10:00N 71°18' W 157°12'0 0.0 010 / 161040.3 5.2 4.4 9.2
2019-Aug-17 09:00N 71°18' W 157°12'2 1.9 010 / 121039.7 5.0 3.8 9.6
2019-Aug-17 08:00N 71°18' W 157°18'0 0.0 020 / 151038.9 4.8 3.5 8.8
2019-Aug-17 07:00N 71°18' W 157°18'6 6.3 360 / 181038.3 4.6 2.8 8.6
2019-Aug-17 06:00N 71°24' W 157°24'0 0.0 1037.5 4.5 3.2 6.7
2019-Aug-17 05:00N 71°24' W 157°24'2 1.9 350 / 161036.6 4.7 2.8 6.5
2019-Aug-17 04:00N 71°24' W 157°30'0 0.0 1035.8 4.6 2.5 6.8
2019-Aug-17 03:00N 71°24' W 157°30'6 6.3 360 / 161035.1 5.0 2.6 6.8
2019-Aug-17 02:00N 71°30' W 157°36'0 0.0 1034.1 4.6 2.7 6.6
2019-Aug-17 01:00N 71°30' W 157°36'0 0.0 020 / 161033.1 4.5 2.5 6.9
2019-Aug-17 00:00N 71°30' W 157°36'2 1.9 020 / 161032.2 4.5 2.5 4.0
2019-Aug-16 23:00N 71°30' W 157°42'0 0.0 010 / 211031.4 4.9 2.7 6.2
2019-Aug-16 22:00N 71°30' W 157°42'6 6.3 010 / 191029.9 5.0 2.4 5.9
2019-Aug-16 21:00N 71°36' W 157°48'0 0.0 020 / 181029.8 5.2 2.6 5.7
2019-Aug-16 20:00N 71°36' W 157°48'2 1.9 360 / 181028.7 5.2 3.2 5.0
2019-Aug-16 19:00N 71°36' W 157°54'0 0.0 1028.3 5.3 2.8 5.2
2019-Aug-16 18:00N 71°36' W 157°54'10 9.6 1027.4 5.3 3.0 3.0
2019-Aug-16 17:00N 71°42' W 158°18'9 9.4 1027.0 5.6 2.3 5.9
2019-Aug-16 16:00N 71°42' W 158°48'1312.8 010 / 231027.2 5.7 3.4 5.9
2019-Aug-16 15:00N 71°48' W 159°24'9 9.4 010 / 191027.0 5.9 4.0 5.5
2019-Aug-16 14:00N 71°48' W 159°54'1111.1 010 / 161027.4 5.6 3.7 5.8
2019-Aug-16 13:00N 71°54' W 160°24'1111.1 020 / 151027.4 5.8 3.6 6.1
2019-Aug-16 12:00N 72°00' W 160°54'9 9.3 030 / 131027.2 5.8 4.8 5.8
2019-Aug-16 11:00N 72°00' W 161°24'1616.3 040 / 171026.8 5.9 4.8 5.6
2019-Aug-16 10:00N 72°12' W 162°00'1312.5 040 / 201026.7 6.1 4.6 6.2
2019-Aug-16 09:00N 72°18' W 162°36'1616.2 040 / 241027.0 6.2 4.5 7.1
2019-Aug-16 08:00N 72°30' W 163°12'1212.4 040 / 211027.7 6.6 4.3 8.2
2019-Aug-16 07:00N 72°36' W 163°48'6210.3 050 / 191027.7 6.3 4.5 7.3
2019-Aug-16 01:00N 73°24' W 166°00'0 0.0 050 / 111029.8 5.1 5.1 4.6
2019-Aug-16 00:00N 73°24' W 166°00'6 6.0 050 / 81029.9 5.0 4.4 4.3
2019-Aug-15 23:00N 73°30' W 166°00'6 6.0 050 / 111029.8 4.9 4.6 4.8
2019-Aug-15 22:00N 73°36' W 166°00'0 0.0 060 / 111029.6 4.8 4.1 4.9
2019-Aug-15 21:00N 73°36' W 166°00'0 0.0 060 / 71029.6 4.3 4.0 5.0
2019-Aug-15 20:00N 73°36' W 166°00'6 6.0 060 / 151029.4 3.6 5.2
2019-Aug-15 19:00N 73°42' W 166°00'1212.0 030 / 101029.2 3.1 3.4
2019-Aug-15 18:00N 73°54' W 166°00'0 0.0 050 / 121029.2 3.2 4.3
2019-Aug-15 17:00N 73°54' W 166°00'0 0.0 060 / 71028.8 3.6 3.6 4.5
2019-Aug-15 16:00N 73°54' W 166°00'6 6.0 050 / 131028.4 4.1 3.7 4.9
2019-Aug-15 15:00N 74°00' W 166°00'6 6.0 060 / 121028.1 4.5 4.5 6.2
2019-Aug-15 14:00N 74°06' W 166°00'0 0.0 050 / 101028.1 4.6 4.6 5.7
2019-Aug-15 13:00N 74°06' W 166°00'5 4.9 060 / 81027.8 4.6 5.8
2019-Aug-15 12:00N 74°06' W 165°42'8 7.8 060 / 91027.5 4.4 4.4 4.6
2019-Aug-15 11:00N 74°12' W 165°24'8 7.7 060 / 81027.2 4.6 4.2 4.5
2019-Aug-15 10:00N 74°18' W 165°06'6 6.5 050 / 81026.7 4.5 3.8 4.6
2019-Aug-15 09:00N 74°18' W 164°42'7 6.8 050 / 91026.3 4.5 3.8 4.8
2019-Aug-15 08:00N 74°24' W 164°30'1414.2 060 / 101025.9 4.2 3.7 4.9
2019-Aug-15 07:00N 74°30' W 163°42'1414.1 050 / 111025.3 3.9 3.9 4.8
2019-Aug-15 06:00N 74°36' W 162°54'1111.3 060 / 91025.0 3.2 3.2 4.8
2019-Aug-15 05:00N 74°42' W 162°18'2 1.6 050 / 101024.5 2.9 2.9 3.7
2019-Aug-15 04:00N 74°42' W 162°12'2 1.6 030 / 101023.9 3.0 2.9 3.1
2019-Aug-15 03:00N 74°42' W 162°06'2 1.6 050 / 151023.4 3.0 3.0 3.4
2019-Aug-15 02:00N 74°42' W 162°00'2 1.6 050 / 131022.8 2.8 2.8 3.4
2019-Aug-15 01:00N 74°42' W 161°54'0 0.0 030 / 131022.3 2.4 3.8
2019-Aug-15 00:00N 74°42' W 161°54'2 1.6 030 / 121022.0 2.4 3.0
2019-Aug-14 23:00N 74°42' W 161°48'1312.6 030 / 131021.3 2.4 2.1 3.5
2019-Aug-14 22:00N 74°36' W 162°30'1414.1 020 / 131020.2 2.5 2.0 4.9
2019-Aug-14 21:00N 74°30' W 163°18'1414.2 040 / 131020.0 3.1 2.6 5.2
2019-Aug-14 20:00N 74°24' W 164°06'1414.3 030 / 141019.3 3.0 2.7 4.6
2019-Aug-14 19:00N 74°18' W 164°54'9 8.9 050 / 161018.4 2.6 1.6 4.8
2019-Aug-14 18:00N 74°12' W 165°18'0 0.0 040 / 181018.6 2.3 2.3 4.9
2019-Aug-14 17:00N 74°12' W 165°18'2 1.6 050 / 191017.8 2.4 2.3 4.8
2019-Aug-14 16:00N 74°12' W 165°24'8 7.7 060 / 161017.4 2.8 2.6 4.7
2019-Aug-14 15:00N 74°18' W 165°06'5 4.9 060 / 151017.3 3.2 2.2 4.7
2019-Aug-14 14:00N 74°18' W 164°48'6 6.2 060 / 161016.9 3.0 2.4 5.2
2019-Aug-14 13:00N 74°24' W 164°42'6 6.5 050 / 231016.2 2.9 2.2 5.3
2019-Aug-14 12:00N 74°24' W 164°18'8 7.7 050 / 171015.7 3.1 2.3 4.9
2019-Aug-14 11:00N 74°30' W 164°00'8 7.7 060 / 191015.5 2.6 1.8 4.9
2019-Aug-14 10:00N 74°36' W 163°42'6 6.4 060 / 201015.1 2.9 1.8 5.0
2019-Aug-14 09:00N 74°36' W 163°18'2 1.6 070 / 211014.2 2.8 1.8 4.6
2019-Aug-14 08:00N 74°36' W 163°12'8 7.7 060 / 161014.8 3.2 2.3 4.7
2019-Aug-14 07:00N 74°42' W 162°54'8 7.6 070 / 141014.7 3.0 2.1 4.3
2019-Aug-14 06:00N 74°48' W 162°36'8 7.6 060 / 231013.4 2.4 1.5 4.5
2019-Aug-14 05:00N 74°42' W 162°18'6 6.0 070 / 281012.5 2.4 1.7 4.1
2019-Aug-14 04:00N 74°36' W 162°18'5 4.8 070 / 271012.5 2.5 2.2 3.6
2019-Aug-14 03:00N 74°36' W 162°00'6 6.0 070 / 271011.8 2.9 2.5 3.1
2019-Aug-14 02:00N 74°30' W 162°00'5 4.8 080 / 231010.7 3.0 2.5 3.1
2019-Aug-14 01:00N 74°30' W 161°42'7 6.8 070 / 231010.8 3.4 2.8 3.3
2019-Aug-14 00:00N 74°24' W 161°30'3 3.2 080 / 231010.2 3.6 3.4 3.3
2019-Aug-13 23:00N 74°24' W 161°18'6 6.2 090 / 281009.4 3.7 3.7 3.4
2019-Aug-13 22:00N 74°18' W 161°12'6 6.2 090 / 241009.2 4.0 3.9 3.4
2019-Aug-13 21:00N 74°24' W 161°18'1111.4 080 / 231007.2 4.4 3.3
2019-Aug-13 20:00N 74°30' W 161°54'9 8.8 080 / 181007.3 4.2 3.1
2019-Aug-13 19:00N 74°24' W 161°30'1111.4 090 / 191007.0 4.2 3.4
2019-Aug-13 18:00N 74°18' W 160°54'6 6.2 100 / 161006.4 4.4 4.0
2019-Aug-13 17:00N 74°12' W 160°48'3 3.3 090 / 121006.0 4.2 4.2
2019-Aug-13 16:00N 74°12' W 160°36'8 7.8 110 / 111005.7 4.2 4.2 3.4
2019-Aug-13 15:00N 74°06' W 160°18'7 6.8 100 / 71005.5 4.0 4.8
2019-Aug-13 14:00N 74°00' W 160°06'3 3.3 120 / 71005.4 3.7 3.7 4.2
2019-Aug-13 13:00N 74°00' W 159°54'6 6.2 150 / 41005.0 3.8 3.6
2019-Aug-13 12:00N 73°54' W 159°48'9 9.0 130 1005.1 3.8 3.2
2019-Aug-13 11:00N 73°48' W 159°24'2 1.7 240 / 41005.0 3.7 3.7 3.7
2019-Aug-13 10:00N 73°48' W 159°18'0 0.0 290 / 31005.4 3.8 4.4
2019-Aug-13 09:00N 73°48' W 159°18'0 0.0 290 / 31005.5 3.7 3.7 4.4
2019-Aug-13 08:00N 73°48' W 159°18'7 6.9 300 1005.9 3.7 4.2
2019-Aug-13 07:00N 73°42' W 159°30'6 6.2 360 / 51006.1 3.5 3.2
2019-Aug-13 06:00N 73°36' W 159°36'2 1.7 300 / 31006.3 4.0 3.8
2019-Aug-13 05:00N 73°36' W 159°42'6 6.2 270 / 41007.0 4.2 4.3
2019-Aug-13 04:00N 73°30' W 159°48'6 6.2 260 / 61007.3 3.5 4.3
2019-Aug-13 03:00N 73°24' W 159°54'1010.5 270 / 51008.1 3.4 3.8
2019-Aug-13 02:00N 73°18' W 160°24'7 6.9 270 / 81008.4 4.7 4.0
2019-Aug-13 01:00N 73°18' W 160°48'0 0.0 250 / 101008.7 5.2 5.0 6.4
2019-Aug-13 00:00N 73°18' W 160°48'0 0.0 250 / 111009.3 5.1 5.1 5.5
2019-Aug-12 23:00N 73°18' W 160°48'2 1.7 260 / 101009.7 5.2 4.5 5.0
2019-Aug-12 22:00N 73°18' W 160°42'1211.9 240 / 81009.6 5.0 4.4 4.6
2019-Aug-12 21:00N 73°24' W 160°06'0 0.0 300 / 31010.7 4.7 3.6
2019-Aug-12 20:00N 73°24' W 160°06'6 6.0 250 / 131011.0 4.5 4.3
2019-Aug-12 19:00N 73°18' W 160°06'5 5.2 240 / 131011.2 4.6 4.4 4.6
2019-Aug-12 18:00N 73°18' W 160°24'2 1.7 260 / 111011.4 4.6 4.6 4.6
2019-Aug-12 17:00N 73°18' W 160°18'6 6.0 240 / 71012.0 4.7 4.7
2019-Aug-12 16:00N 73°12' W 160°18'2 1.7 260 / 161012.4 4.5 4.5 4.7
2019-Aug-12 15:00N 73°12' W 160°24'6 6.2 270 / 191012.7 4.4 4.4 5.8
2019-Aug-12 14:00N 73°06' W 160°30'2 1.7 270 / 181013.2 4.5 4.5 6.0
2019-Aug-12 13:00N 73°06' W 160°24'2 1.7 260 / 141013.1 5.0 4.8 5.2
2019-Aug-12 12:00N 73°06' W 160°30'6 6.2 260 / 181013.6 5.2 5.2 5.7
2019-Aug-12 11:00N 73°00' W 160°36'0 0.0 250 / 191014.2 5.3 5.6
2019-Aug-12 10:00N 73°00' W 160°36'7 7.0 250 / 151014.3 5.3 4.2
2019-Aug-12 09:00N 72°54' W 160°48'0 0.0 260 / 191014.8 5.7 5.6
2019-Aug-12 08:00N 72°54' W 160°48'8 8.0 230 / 131014.9 5.2 5.2 2.3
2019-Aug-12 07:00N 72°48' W 161°06'1312.5 250 / 161015.8 5.4 5.2
2019-Aug-12 06:00N 72°36' W 161°18'1313.2 270 / 171016.4 5.9 6.4
2019-Aug-12 05:00N 72°24' W 161°36'8 8.1 260 / 151016.5 6.4 7.5
2019-Aug-12 04:00N 72°18' W 161°54'1212.1 270 / 161017.1 6.6 6.6 6.6
2019-Aug-12 03:00N 72°06' W 161°48'1212.1 250 / 81017.4 6.3 5.4
2019-Aug-12 02:00N 71°54' W 161°42'6 6.3 260 / 121017.8 6.5 6.2
2019-Aug-12 01:00N 71°48' W 161°48'6 6.3 280 / 141018.6 6.6 6.6 6.3
2019-Aug-12 00:00N 71°42' W 161°42'6 6.3 270 / 131018.4 6.7 4.5
2019-Aug-11 23:00N 71°36' W 161°36'0 0.0 290 / 141018.6 6.6 3.8
2019-Aug-11 22:00N 71°36' W 161°36'6 6.3 280 / 151018.4 6.5 6.5 6.6
2019-Aug-11 21:00N 71°30' W 161°30'0 0.0 300 / 181018.7 6.5 6.5 5.0
2019-Aug-11 20:00N 71°30' W 161°30'0 0.0 290 / 181018.4 6.6 6.0 6.3
2019-Aug-11 19:00N 71°30' W 161°30'2 1.9 300 / 191018.2 6.7 5.7 6.6
2019-Aug-11 18:00N 71°30' W 161°24'6 6.0 290 / 241018.0 6.9 5.9 6.0
2019-Aug-11 17:00N 71°24' W 161°24'6 6.0 280 / 201018.2 7.1 6.1 6.4
2019-Aug-11 16:00N 71°18' W 161°24'6 6.3 270 / 201018.7 7.0 6.3 7.0
2019-Aug-11 15:00N 71°12' W 161°18'0 0.0 290 / 191019.1 7.3 6.5 5.8
2019-Aug-11 14:00N 71°12' W 161°18'0 0.0 270 / 151019.8 6.7 6.6 5.9
2019-Aug-11 13:00N 71°12' W 161°18'6 6.3 260 / 161020.0 6.2 1.6
2019-Aug-11 12:00N 71°06' W 161°12'0 0.0 260 / 201020.6 6.0 6.7
2019-Aug-11 11:00N 71°06' W 161°12'8 8.4 260 / 131021.7 5.8 5.8
2019-Aug-11 10:00N 71°00' W 161°30'1515.0 280 / 101022.6 5.8 7.8
2019-Aug-11 09:00N 70°54' W 162°12'3014.9 290 / 91023.1 6.4 6.3 9.2
2019-Aug-11 07:00N 70°36' W 163°24'1515.2 340 / 71023.5 6.6 6.010.4
2019-Aug-11 06:00N 70°30' W 164°06'1717.0 340 / 91023.4 7.2 6.010.8
2019-Aug-11 05:00N 70°18' W 164°42'1313.5 020 / 81023.5 6.8 6.010.2
2019-Aug-11 04:00N 70°06' W 165°00'1514.5 030 / 81023.9 7.1 6.310.6
2019-Aug-11 03:00N 69°54' W 165°24'1413.5 040 / 101023.5 7.7 6.510.5
2019-Aug-11 02:00N 69°42' W 165°42'1514.6 050 / 131023.2 8.5 6.811.0
2019-Aug-11 01:00N 69°30' W 166°06'1413.6 060 / 141023.3 8.9 6.611.9
2019-Aug-11 00:00N 69°18' W 166°24'1919.1 070 / 151023.0 9.4 6.811.6
2019-Aug-10 23:00N 69°00' W 166°42'1312.8 070 / 181022.6 9.1 7.112.3
2019-Aug-10 22:00N 68°48' W 166°54'1312.8 060 / 181022.2 9.1 8.012.0
2019-Aug-10 21:00N 68°36' W 167°06'1212.2 040 / 141022.1 10.1 8.212.5
2019-Aug-10 20:00N 68°24' W 167°12'9 8.9 050 / 121022.6 11.1 8.611.8
2019-Aug-10 19:00N 68°18' W 166°54'4 4.4 050 / 101022.5 11.3 8.612.5
2019-Aug-10 18:00N 68°18' W 167°06'6 6.0 060 / 101022.4 10.6 8.310.2
2019-Aug-10 17:00N 68°12' W 167°06'4 4.5 050 / 61022.6 11.0 8.410.2
2019-Aug-10 16:00N 68°12' W 167°18'7 7.5 020 / 61022.4 10.6 8.9 8.6
2019-Aug-10 15:00N 68°06' W 167°30'0 0.0 010 / 91022.7 9.9 8.6 7.6
2019-Aug-10 14:00N 68°06' W 167°30'1110.8 010 / 71022.5 10.0 9.0 8.0
2019-Aug-10 13:00N 68°00' W 167°54'0 0.0 010 / 91023.0 9.5 8.8 7.6
2019-Aug-10 12:00N 68°00' W 167°54'1110.8 040 / 101022.9 9.5 8.6 7.8
2019-Aug-10 11:00N 67°54' W 168°18'2 2.3 310 / 81023.3 8.7 8.6 7.4
2019-Aug-10 10:00N 67°54' W 168°12'0 0.0 270 / 101023.3 7.6 7.6 7.0
2019-Aug-10 09:00N 67°54' W 168°12'2 2.3 280 / 71023.3 7.8 7.7 6.8
2019-Aug-10 08:00N 67°54' W 168°18'   260 / 91023.2 7.9 7.5 7.1

Dump ship's entire track history